sensor_id;sensor_type;location;lat;lon;timestamp;temperature;humidity
15834;DHT22;8017;50.812;4.934;2023-03-02T00:02:34;0.10;99.90
15834;DHT22;8017;50.812;4.934;2023-03-02T00:05:39;0.10;99.90
15834;DHT22;8017;50.812;4.934;2023-03-02T00:08:42;0.10;99.90
15834;DHT22;8017;50.812;4.934;2023-03-02T00:11:44;0.20;99.90
15834;DHT22;8017;50.812;4.934;2023-03-02T00:14:46;0.10;99.90
15834;DHT22;8017;50.812;4.934;2023-03-02T00:17:49;0.00;99.90
15834;DHT22;8017;50.812;4.934;2023-03-02T00:20:51;0.00;99.90
15834;DHT22;8017;50.812;4.934;2023-03-02T00:23:53;0.00;99.90
15834;DHT22;8017;50.812;4.934;2023-03-02T00:26:55;-0.10;99.90
15834;DHT22;8017;50.812;4.934;2023-03-02T00:29:57;-0.10;99.90
15834;DHT22;8017;50.812;4.934;2023-03-02T00:33:01;-0.20;99.90
15834;DHT22;8017;50.812;4.934;2023-03-02T00:36:03;-0.30;99.90
15834;DHT22;8017;50.812;4.934;2023-03-02T00:39:05;-0.30;99.90
15834;DHT22;8017;50.812;4.934;2023-03-02T00:42:07;-0.40;99.90
15834;DHT22;8017;50.812;4.934;2023-03-02T00:45:09;-0.40;99.90
15834;DHT22;8017;50.812;4.934;2023-03-02T00:48:12;-0.40;99.90
15834;DHT22;8017;50.812;4.934;2023-03-02T00:51:15;-0.50;99.90
15834;DHT22;8017;50.812;4.934;2023-03-02T00:54:17;-0.60;99.90
15834;DHT22;8017;50.812;4.934;2023-03-02T00:57:19;-0.50;99.90
15834;DHT22;8017;50.812;4.934;2023-03-02T01:00:21;-0.40;99.90
15834;DHT22;8017;50.812;4.934;2023-03-02T01:03:25;-0.30;99.90
15834;DHT22;8017;50.812;4.934;2023-03-02T01:06:27;-0.30;99.90
15834;DHT22;8017;50.812;4.934;2023-03-02T01:09:29;-0.30;99.90
15834;DHT22;8017;50.812;4.934;2023-03-02T01:12:31;-0.30;99.90
15834;DHT22;8017;50.812;4.934;2023-03-02T01:15:33;-0.20;99.90
15834;DHT22;8017;50.812;4.934;2023-03-02T01:18:37;-0.30;99.90
15834;DHT22;8017;50.812;4.934;2023-03-02T01:21:39;-0.40;99.90
15834;DHT22;8017;50.812;4.934;2023-03-02T01:24:42;-0.40;99.90
15834;DHT22;8017;50.812;4.934;2023-03-02T01:27:44;-0.30;99.90
15834;DHT22;8017;50.812;4.934;2023-03-02T01:30:46;-0.30;99.90
15834;DHT22;8017;50.812;4.934;2023-03-02T01:33:50;-0.30;99.90
15834;DHT22;8017;50.812;4.934;2023-03-02T01:36:52;-0.30;99.90
15834;DHT22;8017;50.812;4.934;2023-03-02T01:39:53;-0.40;99.90
15834;DHT22;8017;50.812;4.934;2023-03-02T01:42:57;-0.30;99.90
15834;DHT22;8017;50.812;4.934;2023-03-02T01:46:02;-0.30;99.90
15834;DHT22;8017;50.812;4.934;2023-03-02T01:49:10;-0.30;99.90
15834;DHT22;8017;50.812;4.934;2023-03-02T01:52:14;-0.50;99.90
15834;DHT22;8017;50.812;4.934;2023-03-02T01:55:20;-0.70;99.90
15834;DHT22;8017;50.812;4.934;2023-03-02T01:58:24;-0.60;99.90
15834;DHT22;8017;50.812;4.934;2023-03-02T02:01:28;-0.40;99.90
15834;DHT22;8017;50.812;4.934;2023-03-02T02:04:33;-0.40;99.90
15834;DHT22;8017;50.812;4.934;2023-03-02T02:07:37;-0.40;99.90
15834;DHT22;8017;50.812;4.934;2023-03-02T02:10:39;-0.40;99.90
15834;DHT22;8017;50.812;4.934;2023-03-02T02:13:42;-0.50;99.90
15834;DHT22;8017;50.812;4.934;2023-03-02T02:16:44;-0.50;99.90
15834;DHT22;8017;50.812;4.934;2023-03-02T02:19:55;-0.50;99.90
15834;DHT22;8017;50.812;4.934;2023-03-02T02:23:09;-0.40;99.90
15834;DHT22;8017;50.812;4.934;2023-03-02T02:26:20;-0.50;99.90
15834;DHT22;8017;50.812;4.934;2023-03-02T02:29:25;-0.50;99.90
15834;DHT22;8017;50.812;4.934;2023-03-02T02:32:32;-0.60;99.90
15834;DHT22;8017;50.812;4.934;2023-03-02T02:35:37;-0.60;99.90
15834;DHT22;8017;50.812;4.934;2023-03-02T02:38:40;-0.60;99.90
15834;DHT22;8017;50.812;4.934;2023-03-02T02:41:45;-0.60;99.90
15834;DHT22;8017;50.812;4.934;2023-03-02T02:44:49;-0.70;99.90
15834;DHT22;8017;50.812;4.934;2023-03-02T02:47:52;-0.70;99.90
15834;DHT22;8017;50.812;4.934;2023-03-02T02:50:54;-0.70;99.90
15834;DHT22;8017;50.812;4.934;2023-03-02T02:54:01;-0.60;99.90
15834;DHT22;8017;50.812;4.934;2023-03-02T02:57:05;-0.70;99.90
15834;DHT22;8017;50.812;4.934;2023-03-02T03:00:16;-0.70;99.90
15834;DHT22;8017;50.812;4.934;2023-03-02T03:03:26;-0.70;99.90
15834;DHT22;8017;50.812;4.934;2023-03-02T03:06:34;-0.80;99.90
15834;DHT22;8017;50.812;4.934;2023-03-02T03:09:41;-0.70;99.90
15834;DHT22;8017;50.812;4.934;2023-03-02T03:12:45;-0.70;99.90
15834;DHT22;8017;50.812;4.934;2023-03-02T03:15:47;-0.80;99.90
15834;DHT22;8017;50.812;4.934;2023-03-02T03:18:50;-0.80;99.90
15834;DHT22;8017;50.812;4.934;2023-03-02T03:21:54;-0.80;99.90
15834;DHT22;8017;50.812;4.934;2023-03-02T03:24:56;-0.90;99.90
15834;DHT22;8017;50.812;4.934;2023-03-02T03:27:59;-0.90;99.90
15834;DHT22;8017;50.812;4.934;2023-03-02T03:31:03;-0.90;99.90
15834;DHT22;8017;50.812;4.934;2023-03-02T03:34:06;-0.90;99.90
15834;DHT22;8017;50.812;4.934;2023-03-02T03:37:09;-0.90;99.90
15834;DHT22;8017;50.812;4.934;2023-03-02T03:40:11;-0.90;99.90
15834;DHT22;8017;50.812;4.934;2023-03-02T03:43:14;-1.00;99.90
15834;DHT22;8017;50.812;4.934;2023-03-02T03:46:17;-1.00;99.90
15834;DHT22;8017;50.812;4.934;2023-03-02T03:49:19;-1.00;99.90
15834;DHT22;8017;50.812;4.934;2023-03-02T03:52:20;-1.00;99.90
15834;DHT22;8017;50.812;4.934;2023-03-02T03:55:30;-0.90;99.90
15834;DHT22;8017;50.812;4.934;2023-03-02T03:58:33;-1.00;99.90
15834;DHT22;8017;50.812;4.934;2023-03-02T04:01:37;-1.00;99.90
15834;DHT22;8017;50.812;4.934;2023-03-02T04:04:39;-1.00;99.90
15834;DHT22;8017;50.812;4.934;2023-03-02T04:07:41;-1.10;99.90
15834;DHT22;8017;50.812;4.934;2023-03-02T04:10:43;-1.10;99.90
15834;DHT22;8017;50.812;4.934;2023-03-02T04:13:46;-1.10;99.90
15834;DHT22;8017;50.812;4.934;2023-03-02T04:16:49;-1.20;99.90
15834;DHT22;8017;50.812;4.934;2023-03-02T04:19:51;-1.30;99.90
15834;DHT22;8017;50.812;4.934;2023-03-02T04:22:55;-1.20;99.90
15834;DHT22;8017;50.812;4.934;2023-03-02T04:25:57;-1.20;99.90
15834;DHT22;8017;50.812;4.934;2023-03-02T04:29:00;-1.20;99.90
15834;DHT22;8017;50.812;4.934;2023-03-02T04:32:02;-1.20;99.90
15834;DHT22;8017;50.812;4.934;2023-03-02T04:35:05;-1.20;99.90
15834;DHT22;8017;50.812;4.934;2023-03-02T04:38:07;-1.20;99.90
15834;DHT22;8017;50.812;4.934;2023-03-02T04:41:09;-1.20;99.90
15834;DHT22;8017;50.812;4.934;2023-03-02T04:44:13;-1.20;99.90
15834;DHT22;8017;50.812;4.934;2023-03-02T04:47:15;-1.20;99.90
15834;DHT22;8017;50.812;4.934;2023-03-02T04:50:17;-1.30;99.90
15834;DHT22;8017;50.812;4.934;2023-03-02T04:53:19;-1.40;99.90
15834;DHT22;8017;50.812;4.934;2023-03-02T04:56:21;-1.40;99.90
15834;DHT22;8017;50.812;4.934;2023-03-02T04:59:26;-1.40;99.90
15834;DHT22;8017;50.812;4.934;2023-03-02T05:02:28;-1.40;99.90
15834;DHT22;8017;50.812;4.934;2023-03-02T05:05:31;-1.30;99.90
15834;DHT22;8017;50.812;4.934;2023-03-02T05:08:33;-1.30;99.90
15834;DHT22;8017;50.812;4.934;2023-03-02T05:11:35;-1.40;99.90
15834;DHT22;8017;50.812;4.934;2023-03-02T05:14:38;-1.40;99.90
15834;DHT22;8017;50.812;4.934;2023-03-02T05:17:40;-1.50;99.90
15834;DHT22;8017;50.812;4.934;2023-03-02T05:20:42;-1.50;99.90
15834;DHT22;8017;50.812;4.934;2023-03-02T05:23:44;-1.40;99.90
15834;DHT22;8017;50.812;4.934;2023-03-02T05:26:46;-1.50;99.90
15834;DHT22;8017;50.812;4.934;2023-03-02T05:29:49;-1.50;99.90
15834;DHT22;8017;50.812;4.934;2023-03-02T05:32:52;-1.50;99.90
15834;DHT22;8017;50.812;4.934;2023-03-02T05:35:54;-1.60;99.90
15834;DHT22;8017;50.812;4.934;2023-03-02T05:38:56;-1.60;99.90
15834;DHT22;8017;50.812;4.934;2023-03-02T05:41:58;-1.60;99.90
15834;DHT22;8017;50.812;4.934;2023-03-02T05:45:01;-1.60;99.90
15834;DHT22;8017;50.812;4.934;2023-03-02T05:48:04;-1.60;99.90
15834;DHT22;8017;50.812;4.934;2023-03-02T05:51:06;-1.60;99.90
15834;DHT22;8017;50.812;4.934;2023-03-02T05:54:08;-1.60;99.90
15834;DHT22;8017;50.812;4.934;2023-03-02T05:57:09;-1.70;99.90
15834;DHT22;8017;50.812;4.934;2023-03-02T06:00:15;-1.70;99.90
15834;DHT22;8017;50.812;4.934;2023-03-02T06:03:17;-1.70;99.90
15834;DHT22;8017;50.812;4.934;2023-03-02T06:06:19;-1.70;99.90
15834;DHT22;8017;50.812;4.934;2023-03-02T06:09:21;-1.70;99.90
15834;DHT22;8017;50.812;4.934;2023-03-02T06:12:23;-1.60;99.90
15834;DHT22;8017;50.812;4.934;2023-03-02T06:15:26;-1.70;99.90
15834;DHT22;8017;50.812;4.934;2023-03-02T06:18:29;-1.70;99.90
15834;DHT22;8017;50.812;4.934;2023-03-02T06:21:31;-1.60;99.90
15834;DHT22;8017;50.812;4.934;2023-03-02T06:24:33;-1.60;99.90
15834;DHT22;8017;50.812;4.934;2023-03-02T06:27:36;-1.50;99.90
15834;DHT22;8017;50.812;4.934;2023-03-02T06:30:40;-1.60;99.90
15834;DHT22;8017;50.812;4.934;2023-03-02T06:33:42;-1.60;99.90
15834;DHT22;8017;50.812;4.934;2023-03-02T06:36:44;-1.60;99.90
15834;DHT22;8017;50.812;4.934;2023-03-02T06:39:46;-1.60;99.90
15834;DHT22;8017;50.812;4.934;2023-03-02T06:42:48;-1.50;99.90
15834;DHT22;8017;50.812;4.934;2023-03-02T06:45:51;-1.50;99.90
15834;DHT22;8017;50.812;4.934;2023-03-02T06:48:53;-1.40;99.90
15834;DHT22;8017;50.812;4.934;2023-03-02T06:51:55;-1.40;99.90
15834;DHT22;8017;50.812;4.934;2023-03-02T06:55:00;-1.30;99.90
15834;DHT22;8017;50.812;4.934;2023-03-02T06:58:02;-1.30;99.90
15834;DHT22;8017;50.812;4.934;2023-03-02T07:01:05;-1.20;99.90
15834;DHT22;8017;50.812;4.934;2023-03-02T07:04:08;-1.20;99.90
15834;DHT22;8017;50.812;4.934;2023-03-02T07:07:10;-1.10;99.90
15834;DHT22;8017;50.812;4.934;2023-03-02T07:10:15;-1.10;99.90
15834;DHT22;8017;50.812;4.934;2023-03-02T07:13:17;-1.00;99.90
15834;DHT22;8017;50.812;4.934;2023-03-02T07:16:20;-0.90;99.90
15834;DHT22;8017;50.812;4.934;2023-03-02T07:19:22;-0.90;99.90
15834;DHT22;8017;50.812;4.934;2023-03-02T07:22:24;-0.90;99.90
15834;DHT22;8017;50.812;4.934;2023-03-02T07:25:26;-0.70;99.90
15834;DHT22;8017;50.812;4.934;2023-03-02T07:28:28;-0.70;99.90
15834;DHT22;8017;50.812;4.934;2023-03-02T07:31:31;-0.60;99.90
15834;DHT22;8017;50.812;4.934;2023-03-02T07:34:33;-0.60;99.90
15834;DHT22;8017;50.812;4.934;2023-03-02T07:37:35;-0.50;99.90
15834;DHT22;8017;50.812;4.934;2023-03-02T07:40:39;-0.40;99.90
15834;DHT22;8017;50.812;4.934;2023-03-02T07:43:41;-0.40;99.90
15834;DHT22;8017;50.812;4.934;2023-03-02T07:46:45;-0.30;99.90
15834;DHT22;8017;50.812;4.934;2023-03-02T07:49:46;-0.30;99.90
15834;DHT22;8017;50.812;4.934;2023-03-02T07:52:48;-0.20;99.90
15834;DHT22;8017;50.812;4.934;2023-03-02T07:55:50;-0.10;99.90
15834;DHT22;8017;50.812;4.934;2023-03-02T07:58:52;-0.10;99.90
15834;DHT22;8017;50.812;4.934;2023-03-02T08:01:56;-0.10;99.90
15834;DHT22;8017;50.812;4.934;2023-03-02T08:04:58;0.10;99.90
15834;DHT22;8017;50.812;4.934;2023-03-02T08:08:00;0.20;99.90
15834;DHT22;8017;50.812;4.934;2023-03-02T08:11:06;0.30;99.90
15834;DHT22;8017;50.812;4.934;2023-03-02T08:14:08;0.30;99.90
15834;DHT22;8017;50.812;4.934;2023-03-02T08:17:12;0.40;99.90
15834;DHT22;8017;50.812;4.934;2023-03-02T08:20:14;0.50;99.90
15834;DHT22;8017;50.812;4.934;2023-03-02T08:23:15;0.60;99.90
15834;DHT22;8017;50.812;4.934;2023-03-02T08:26:19;0.60;99.90
15834;DHT22;8017;50.812;4.934;2023-03-02T08:29:21;0.70;99.90
15834;DHT22;8017;50.812;4.934;2023-03-02T08:32:25;0.80;99.90
15834;DHT22;8017;50.812;4.934;2023-03-02T08:35:27;0.90;99.90
15834;DHT22;8017;50.812;4.934;2023-03-02T08:38:32;1.00;99.90
15834;DHT22;8017;50.812;4.934;2023-03-02T08:41:34;1.10;99.90
15834;DHT22;8017;50.812;4.934;2023-03-02T08:44:35;1.20;99.90
15834;DHT22;8017;50.812;4.934;2023-03-02T08:47:39;1.20;99.90
15834;DHT22;8017;50.812;4.934;2023-03-02T08:50:41;1.30;99.90
15834;DHT22;8017;50.812;4.934;2023-03-02T08:53:44;1.40;99.90
15834;DHT22;8017;50.812;4.934;2023-03-02T08:56:46;1.40;99.90
15834;DHT22;8017;50.812;4.934;2023-03-02T08:59:48;1.50;99.90
15834;DHT22;8017;50.812;4.934;2023-03-02T09:02:53;1.50;99.90
15834;DHT22;8017;50.812;4.934;2023-03-02T09:05:55;1.50;99.90
15834;DHT22;8017;50.812;4.934;2023-03-02T09:08:57;1.60;99.90
15834;DHT22;8017;50.812;4.934;2023-03-02T09:11:59;1.60;99.90
15834;DHT22;8017;50.812;4.934;2023-03-02T09:15:01;1.70;99.90
15834;DHT22;8017;50.812;4.934;2023-03-02T09:18:04;1.80;99.90
15834;DHT22;8017;50.812;4.934;2023-03-02T09:21:06;2.00;99.90
15834;DHT22;8017;50.812;4.934;2023-03-02T09:24:08;2.10;99.90
15834;DHT22;8017;50.812;4.934;2023-03-02T09:27:10;2.20;99.90
15834;DHT22;8017;50.812;4.934;2023-03-02T09:30:14;2.30;99.90
15834;DHT22;8017;50.812;4.934;2023-03-02T09:33:18;2.30;99.90
15834;DHT22;8017;50.812;4.934;2023-03-02T09:36:22;2.30;99.90
15834;DHT22;8017;50.812;4.934;2023-03-02T09:39:24;2.40;99.90
15834;DHT22;8017;50.812;4.934;2023-03-02T09:46:11;2.60;99.90
15834;DHT22;8017;50.812;4.934;2023-03-02T09:49:26;2.70;99.90
15834;DHT22;8017;50.812;4.934;2023-03-02T09:52:32;2.90;99.90
15834;DHT22;8017;50.812;4.934;2023-03-02T09:55:36;3.10;99.90
15834;DHT22;8017;50.812;4.934;2023-03-02T09:58:38;3.10;99.90
15834;DHT22;8017;50.812;4.934;2023-03-02T10:01:47;3.20;99.90
15834;DHT22;8017;50.812;4.934;2023-03-02T10:04:55;3.30;99.90
15834;DHT22;8017;50.812;4.934;2023-03-02T10:07:58;3.50;99.90
15834;DHT22;8017;50.812;4.934;2023-03-02T10:11:06;3.60;99.90
15834;DHT22;8017;50.812;4.934;2023-03-02T10:14:14;3.50;99.90
15834;DHT22;8017;50.812;4.934;2023-03-02T10:17:39;3.50;99.90
15834;DHT22;8017;50.812;4.934;2023-03-02T10:20:50;3.60;99.90
15834;DHT22;8017;50.812;4.934;2023-03-02T10:23:57;3.60;99.90
15834;DHT22;8017;50.812;4.934;2023-03-02T10:27:17;3.80;99.90
15834;DHT22;8017;50.812;4.934;2023-03-02T10:30:24;3.90;99.90
15834;DHT22;8017;50.812;4.934;2023-03-02T10:33:31;4.00;99.90
15834;DHT22;8017;50.812;4.934;2023-03-02T10:36:39;4.00;99.90
15834;DHT22;8017;50.812;4.934;2023-03-02T10:39:41;4.20;99.90
15834;DHT22;8017;50.812;4.934;2023-03-02T10:42:43;4.30;99.90
15834;DHT22;8017;50.812;4.934;2023-03-02T10:45:57;4.40;99.90
15834;DHT22;8017;50.812;4.934;2023-03-02T10:48:59;4.40;99.90
15834;DHT22;8017;50.812;4.934;2023-03-02T10:52:05;4.40;99.90
15834;DHT22;8017;50.812;4.934;2023-03-02T10:55:12;4.50;99.90
15834;DHT22;8017;50.812;4.934;2023-03-02T10:58:22;4.60;99.90
15834;DHT22;8017;50.812;4.934;2023-03-02T11:01:25;4.60;99.90
15834;DHT22;8017;50.812;4.934;2023-03-02T11:04:27;4.70;99.90
15834;DHT22;8017;50.812;4.934;2023-03-02T11:07:31;4.70;99.90
15834;DHT22;8017;50.812;4.934;2023-03-02T11:10:35;4.80;99.90
15834;DHT22;8017;50.812;4.934;2023-03-02T11:13:38;5.00;99.90
15834;DHT22;8017;50.812;4.934;2023-03-02T11:16:40;5.20;99.90
15834;DHT22;8017;50.812;4.934;2023-03-02T11:19:42;5.30;99.90
15834;DHT22;8017;50.812;4.934;2023-03-02T11:22:52;5.30;99.90
15834;DHT22;8017;50.812;4.934;2023-03-02T11:26:00;5.30;99.90
15834;DHT22;8017;50.812;4.934;2023-03-02T11:29:05;5.40;99.90
15834;DHT22;8017;50.812;4.934;2023-03-02T11:32:14;5.50;99.90
15834;DHT22;8017;50.812;4.934;2023-03-02T11:35:27;5.60;99.90
15834;DHT22;8017;50.812;4.934;2023-03-02T11:38:38;5.60;99.90
15834;DHT22;8017;50.812;4.934;2023-03-02T11:41:41;5.80;99.90
15834;DHT22;8017;50.812;4.934;2023-03-02T11:44:44;5.90;99.90
15834;DHT22;8017;50.812;4.934;2023-03-02T11:47:50;6.00;99.90
15834;DHT22;8017;50.812;4.934;2023-03-02T11:50:56;6.00;99.90
15834;DHT22;8017;50.812;4.934;2023-03-02T11:54:03;6.10;99.90
15834;DHT22;8017;50.812;4.934;2023-03-02T11:57:07;6.10;99.90
15834;DHT22;8017;50.812;4.934;2023-03-02T12:00:28;6.30;99.90
15834;DHT22;8017;50.812;4.934;2023-03-02T12:03:40;6.40;99.90
15834;DHT22;8017;50.812;4.934;2023-03-02T12:06:44;6.40;99.90
15834;DHT22;8017;50.812;4.934;2023-03-02T12:09:57;6.30;99.90
15834;DHT22;8017;50.812;4.934;2023-03-02T12:13:09;6.40;99.90
15834;DHT22;8017;50.812;4.934;2023-03-02T12:16:19;6.50;99.90
15834;DHT22;8017;50.812;4.934;2023-03-02T12:19:25;6.60;99.90
15834;DHT22;8017;50.812;4.934;2023-03-02T12:22:29;6.60;99.90
15834;DHT22;8017;50.812;4.934;2023-03-02T12:25:39;6.70;99.90
15834;DHT22;8017;50.812;4.934;2023-03-02T12:28:41;6.80;99.90
15834;DHT22;8017;50.812;4.934;2023-03-02T12:31:45;6.90;99.90
15834;DHT22;8017;50.812;4.934;2023-03-02T12:34:52;7.00;99.90
15834;DHT22;8017;50.812;4.934;2023-03-02T12:37:57;7.20;99.90
15834;DHT22;8017;50.812;4.934;2023-03-02T12:41:26;7.30;99.90
15834;DHT22;8017;50.812;4.934;2023-03-02T12:44:40;7.20;99.90
15834;DHT22;8017;50.812;4.934;2023-03-02T12:47:50;7.20;99.90
15834;DHT22;8017;50.812;4.934;2023-03-02T12:50:58;7.20;99.90
15834;DHT22;8017;50.812;4.934;2023-03-02T12:54:02;7.30;99.90
15834;DHT22;8017;50.812;4.934;2023-03-02T12:57:14;7.30;99.90
15834;DHT22;8017;50.812;4.934;2023-03-02T13:00:18;7.40;99.90
15834;DHT22;8017;50.812;4.934;2023-03-02T13:03:21;7.40;99.90
15834;DHT22;8017;50.812;4.934;2023-03-02T13:06:25;7.50;99.90
15834;DHT22;8017;50.812;4.934;2023-03-02T13:09:28;7.60;99.90
15834;DHT22;8017;50.812;4.934;2023-03-02T13:12:33;7.80;99.90
15834;DHT22;8017;50.812;4.934;2023-03-02T13:15:46;7.90;99.90
15834;DHT22;8017;50.812;4.934;2023-03-02T13:18:49;7.90;99.90
15834;DHT22;8017;50.812;4.934;2023-03-02T13:21:53;8.00;99.90
15834;DHT22;8017;50.812;4.934;2023-03-02T13:24:56;8.10;99.90
15834;DHT22;8017;50.812;4.934;2023-03-02T13:28:01;8.10;99.90
15834;DHT22;8017;50.812;4.934;2023-03-02T13:31:18;8.20;99.90
15834;DHT22;8017;50.812;4.934;2023-03-02T13:34:21;8.30;99.90
15834;DHT22;8017;50.812;4.934;2023-03-02T13:37:33;8.30;99.90
15834;DHT22;8017;50.812;4.934;2023-03-02T13:40:39;8.30;99.90
15834;DHT22;8017;50.812;4.934;2023-03-02T13:43:42;8.50;99.90
15834;DHT22;8017;50.812;4.934;2023-03-02T13:46:45;8.40;99.90
15834;DHT22;8017;50.812;4.934;2023-03-02T13:49:47;8.40;99.90
15834;DHT22;8017;50.812;4.934;2023-03-02T13:52:50;8.40;99.90
15834;DHT22;8017;50.812;4.934;2023-03-02T13:55:52;8.50;99.90
15834;DHT22;8017;50.812;4.934;2023-03-02T13:58:56;8.60;99.90
15834;DHT22;8017;50.812;4.934;2023-03-02T14:01:58;8.70;99.90
15834;DHT22;8017;50.812;4.934;2023-03-02T14:05:00;8.60;99.90
15834;DHT22;8017;50.812;4.934;2023-03-02T14:08:02;8.60;99.90
15834;DHT22;8017;50.812;4.934;2023-03-02T14:11:06;8.80;99.90
15834;DHT22;8017;50.812;4.934;2023-03-02T14:14:14;8.80;99.90
15834;DHT22;8017;50.812;4.934;2023-03-02T14:17:20;8.70;99.90
15834;DHT22;8017;50.812;4.934;2023-03-02T14:20:23;8.80;99.90
15834;DHT22;8017;50.812;4.934;2023-03-02T14:23:25;8.90;99.90
15834;DHT22;8017;50.812;4.934;2023-03-02T14:26:32;8.80;99.90
15834;DHT22;8017;50.812;4.934;2023-03-02T14:29:37;8.90;99.90
15834;DHT22;8017;50.812;4.934;2023-03-02T14:32:39;9.00;99.90
15834;DHT22;8017;50.812;4.934;2023-03-02T14:35:41;8.90;99.90
15834;DHT22;8017;50.812;4.934;2023-03-02T14:38:43;8.90;99.90
15834;DHT22;8017;50.812;4.934;2023-03-02T14:41:45;8.90;99.90
15834;DHT22;8017;50.812;4.934;2023-03-02T14:44:50;8.90;99.90
15834;DHT22;8017;50.812;4.934;2023-03-02T14:47:52;8.90;99.90
15834;DHT22;8017;50.812;4.934;2023-03-02T14:50:54;9.00;99.90
15834;DHT22;8017;50.812;4.934;2023-03-02T14:53:58;9.10;99.90
15834;DHT22;8017;50.812;4.934;2023-03-02T14:57:02;9.10;99.90
15834;DHT22;8017;50.812;4.934;2023-03-02T15:00:12;9.10;99.90
15834;DHT22;8017;50.812;4.934;2023-03-02T15:03:17;9.20;99.90
15834;DHT22;8017;50.812;4.934;2023-03-02T15:06:25;9.30;99.90
15834;DHT22;8017;50.812;4.934;2023-03-02T15:09:27;9.10;99.90
15834;DHT22;8017;50.812;4.934;2023-03-02T15:12:29;9.10;99.90
15834;DHT22;8017;50.812;4.934;2023-03-02T15:15:33;9.10;99.90
15834;DHT22;8017;50.812;4.934;2023-03-02T15:18:34;9.20;99.90
15834;DHT22;8017;50.812;4.934;2023-03-02T15:21:37;9.10;99.90
15834;DHT22;8017;50.812;4.934;2023-03-02T15:24:44;9.20;99.90
15834;DHT22;8017;50.812;4.934;2023-03-02T15:27:46;9.20;99.90
15834;DHT22;8017;50.812;4.934;2023-03-02T15:30:49;9.20;99.90
15834;DHT22;8017;50.812;4.934;2023-03-02T15:33:51;9.20;99.90
15834;DHT22;8017;50.812;4.934;2023-03-02T15:36:54;9.20;99.90
15834;DHT22;8017;50.812;4.934;2023-03-02T15:39:56;9.20;99.90
15834;DHT22;8017;50.812;4.934;2023-03-02T15:42:58;9.20;99.90
15834;DHT22;8017;50.812;4.934;2023-03-02T15:46:01;9.20;99.90
15834;DHT22;8017;50.812;4.934;2023-03-02T15:49:03;9.20;99.90
15834;DHT22;8017;50.812;4.934;2023-03-02T15:52:05;9.10;99.90
15834;DHT22;8017;50.812;4.934;2023-03-02T15:55:08;9.10;99.90
15834;DHT22;8017;50.812;4.934;2023-03-02T15:58:10;9.00;99.90
15834;DHT22;8017;50.812;4.934;2023-03-02T16:01:13;9.00;99.90
15834;DHT22;8017;50.812;4.934;2023-03-02T16:04:16;9.00;99.90
15834;DHT22;8017;50.812;4.934;2023-03-02T16:07:18;9.00;99.90
15834;DHT22;8017;50.812;4.934;2023-03-02T16:10:20;9.00;99.90
15834;DHT22;8017;50.812;4.934;2023-03-02T16:13:24;9.00;99.90
15834;DHT22;8017;50.812;4.934;2023-03-02T16:16:28;8.90;99.90
15834;DHT22;8017;50.812;4.934;2023-03-02T16:19:30;9.00;99.90
15834;DHT22;8017;50.812;4.934;2023-03-02T16:22:33;8.80;99.90
15834;DHT22;8017;50.812;4.934;2023-03-02T16:25:36;8.70;99.90
15834;DHT22;8017;50.812;4.934;2023-03-02T16:28:39;8.80;99.90
15834;DHT22;8017;50.812;4.934;2023-03-02T16:31:44;8.80;99.90
15834;DHT22;8017;50.812;4.934;2023-03-02T16:34:46;8.70;99.90
15834;DHT22;8017;50.812;4.934;2023-03-02T16:37:48;8.60;99.90
15834;DHT22;8017;50.812;4.934;2023-03-02T16:40:50;8.60;99.90
15834;DHT22;8017;50.812;4.934;2023-03-02T16:43:54;8.50;99.90
15834;DHT22;8017;50.812;4.934;2023-03-02T16:46:58;8.40;99.90
15834;DHT22;8017;50.812;4.934;2023-03-02T16:50:00;8.30;99.90
15834;DHT22;8017;50.812;4.934;2023-03-02T16:53:02;8.10;99.90
15834;DHT22;8017;50.812;4.934;2023-03-02T16:56:04;8.10;99.90
15834;DHT22;8017;50.812;4.934;2023-03-02T16:59:06;8.00;99.90
15834;DHT22;8017;50.812;4.934;2023-03-02T17:02:10;7.90;99.90
15834;DHT22;8017;50.812;4.934;2023-03-02T17:05:14;7.90;99.90
15834;DHT22;8017;50.812;4.934;2023-03-02T17:08:16;7.80;99.90
15834;DHT22;8017;50.812;4.934;2023-03-02T17:11:18;7.70;99.90
15834;DHT22;8017;50.812;4.934;2023-03-02T17:14:20;7.60;99.90
15834;DHT22;8017;50.812;4.934;2023-03-02T17:17:23;7.40;99.90
15834;DHT22;8017;50.812;4.934;2023-03-02T17:20:26;7.30;99.90
15834;DHT22;8017;50.812;4.934;2023-03-02T17:23:28;7.20;99.90
15834;DHT22;8017;50.812;4.934;2023-03-02T17:26:30;7.10;99.90
15834;DHT22;8017;50.812;4.934;2023-03-02T17:29:32;6.90;99.90
15834;DHT22;8017;50.812;4.934;2023-03-02T17:32:36;6.70;99.90
15834;DHT22;8017;50.812;4.934;2023-03-02T17:35:37;6.60;99.90
15834;DHT22;8017;50.812;4.934;2023-03-02T17:38:40;6.50;99.90
15834;DHT22;8017;50.812;4.934;2023-03-02T17:41:42;6.40;99.90
15834;DHT22;8017;50.812;4.934;2023-03-02T17:44:43;6.40;99.90
15834;DHT22;8017;50.812;4.934;2023-03-02T17:47:47;6.40;99.90
15834;DHT22;8017;50.812;4.934;2023-03-02T17:50:49;6.30;99.90
15834;DHT22;8017;50.812;4.934;2023-03-02T17:53:52;6.30;99.90
15834;DHT22;8017;50.812;4.934;2023-03-02T17:56:54;6.30;99.90
15834;DHT22;8017;50.812;4.934;2023-03-02T17:59:56;6.30;99.90
15834;DHT22;8017;50.812;4.934;2023-03-02T18:03:00;6.20;99.90
15834;DHT22;8017;50.812;4.934;2023-03-02T18:06:02;6.20;99.90
15834;DHT22;8017;50.812;4.934;2023-03-02T18:09:04;6.10;99.90
15834;DHT22;8017;50.812;4.934;2023-03-02T18:12:06;6.00;99.90
15834;DHT22;8017;50.812;4.934;2023-03-02T18:15:09;5.90;99.90
15834;DHT22;8017;50.812;4.934;2023-03-02T18:18:13;5.80;99.90
15834;DHT22;8017;50.812;4.934;2023-03-02T18:21:15;5.80;99.90
15834;DHT22;8017;50.812;4.934;2023-03-02T18:24:17;5.70;99.90
15834;DHT22;8017;50.812;4.934;2023-03-02T18:27:19;5.60;99.90
15834;DHT22;8017;50.812;4.934;2023-03-02T18:30:21;5.60;99.90
15834;DHT22;8017;50.812;4.934;2023-03-02T18:33:25;5.70;99.90
15834;DHT22;8017;50.812;4.934;2023-03-02T18:36:27;5.60;99.90
15834;DHT22;8017;50.812;4.934;2023-03-02T18:39:29;5.60;99.90
15834;DHT22;8017;50.812;4.934;2023-03-02T18:42:31;5.50;99.90
15834;DHT22;8017;50.812;4.934;2023-03-02T18:45:33;5.50;99.90
15834;DHT22;8017;50.812;4.934;2023-03-02T18:48:36;5.60;99.90
15834;DHT22;8017;50.812;4.934;2023-03-02T18:51:39;5.60;99.90
15834;DHT22;8017;50.812;4.934;2023-03-02T18:54:42;5.70;99.90
15834;DHT22;8017;50.812;4.934;2023-03-02T18:57:45;5.70;99.90
15834;DHT22;8017;50.812;4.934;2023-03-02T19:00:47;5.70;99.90
15834;DHT22;8017;50.812;4.934;2023-03-02T19:03:50;5.60;99.90
15834;DHT22;8017;50.812;4.934;2023-03-02T19:06:56;5.50;99.90
15834;DHT22;8017;50.812;4.934;2023-03-02T19:10:00;5.40;99.90
15834;DHT22;8017;50.812;4.934;2023-03-02T19:13:02;5.40;99.90
15834;DHT22;8017;50.812;4.934;2023-03-02T19:16:05;5.20;99.90
15834;DHT22;8017;50.812;4.934;2023-03-02T19:19:09;5.00;99.90
15834;DHT22;8017;50.812;4.934;2023-03-02T19:22:11;4.80;99.90
15834;DHT22;8017;50.812;4.934;2023-03-02T19:25:16;4.70;99.90
15834;DHT22;8017;50.812;4.934;2023-03-02T19:28:18;4.90;99.90
15834;DHT22;8017;50.812;4.934;2023-03-02T19:31:21;5.00;99.90
15834;DHT22;8017;50.812;4.934;2023-03-02T19:34:25;5.00;99.90
15834;DHT22;8017;50.812;4.934;2023-03-02T19:37:26;5.00;99.90
15834;DHT22;8017;50.812;4.934;2023-03-02T19:40:28;4.90;99.90
15834;DHT22;8017;50.812;4.934;2023-03-02T19:43:31;4.80;99.90
15834;DHT22;8017;50.812;4.934;2023-03-02T19:46:33;4.70;99.90
15834;DHT22;8017;50.812;4.934;2023-03-02T19:49:36;4.70;99.90
15834;DHT22;8017;50.812;4.934;2023-03-02T19:52:38;4.60;99.90
15834;DHT22;8017;50.812;4.934;2023-03-02T19:55:41;4.60;99.90